Time;durP1;ratioP1;P1;durP2;ratioP2;P2;SDS_P1;SDS_P2;PMS_P1;PMS_P2;Temp;Humidity;BMP_temperature;BMP_pressure;BME280_temperature;BME280_humidity;BME280_pressure;Samples;Min_cycle;Max_cycle;Signal;HPM_P1;HPM_P2
2021/11/01 00:00:52;;;;;;;;;;;;;;;4.39;77.77;101831.06;1927958;74;20149;-69
2021/11/01 00:03:19;;;;;;;;;;;;;;;4.39;77.70;101830.65;1927989;74;20157;-69
2021/11/01 00:05:48;;;;;;;;;;;;;;;4.35;77.94;101829.31;1927908;74;20117;-68
2021/11/01 00:08:16;;;;;;;;;;;;;;;4.29;78.23;101826.69;1927970;74;20126;-68
2021/11/01 00:10:43;;;;;;;;;;;;;;;4.27;78.17;101827.12;1927882;74;20121;-68
2021/11/01 00:13:11;;;;;;;;;;;;;;;4.19;78.75;101835.77;1927948;74;20122;-68
2021/11/01 00:15:39;;;;;;;;;;;;;;;4.18;79.00;101831.84;1927956;74;20456;-68
2021/11/01 00:18:07;;;;;;;;;;;;;;;4.10;79.13;101829.20;1927895;74;20129;-69
2021/11/01 00:20:35;;;;;;;;;;;;;;;4.04;79.43;101826.58;1928174;74;20160;-68
2021/11/01 00:23:03;;;;;;;;;;;;;;;3.99;79.82;101825.67;1928215;74;20352;-68
2021/11/01 00:25:30;;;;;;;;;;;;;;;4.01;79.59;101818.73;1927860;74;20140;-68
2021/11/01 00:28:00;;;;;;;;;;;;;;;4.02;79.21;101815.25;1927943;74;20106;-68
2021/11/01 00:30:28;;;;;;;;;;;;;;;4.03;79.24;101811.79;1927977;74;20385;-69
2021/11/01 00:32:56;;;;;;;;;;;;;;;4.02;79.34;101812.23;1927880;74;20165;-69
2021/11/01 00:35:23;;;;;;;;;;;;;;;4.06;79.19;101817.03;1927924;74;20114;-68
2021/11/01 00:37:51;;;;;;;;;;;;;;;4.05;79.20;101807.02;1927939;74;20149;-68
2021/11/01 00:40:19;;;;;;;;;;;;;;;4.06;79.14;101806.16;1927963;74;20114;-68
2021/11/01 00:42:47;;;;;;;;;;;;;;;4.11;78.98;101813.13;1927923;74;20150;-68
2021/11/01 00:45:15;;;;;;;;;;;;;;;4.13;78.95;101813.59;1927988;74;20144;-69
2021/11/01 00:47:43;;;;;;;;;;;;;;;4.14;79.05;101807.50;1927945;74;20118;-68
2021/11/01 00:50:11;;;;;;;;;;;;;;;4.10;79.46;101803.58;1928031;74;20169;-69
2021/11/01 00:52:39;;;;;;;;;;;;;;;4.11;79.25;101806.17;1927887;74;20189;-69
2021/11/01 00:55:18;;;;;;;;;;;;;;;4.12;79.37;101813.58;1927920;74;20137;-69
2021/11/01 00:57:36;;;;;;;;;;;;;;;4.10;79.53;101807.49;1927303;74;20118;-69
2021/11/01 01:00:05;;;;;;;;;;;;;;;4.06;79.73;101801.39;1927899;74;20191;-69
2021/11/01 01:02:33;;;;;;;;;;;;;;;4.01;79.63;101800.48;1927941;74;20118;-69
2021/11/01 01:05:05;;;;;;;;;;;;;;;3.98;79.58;101803.07;1927934;74;20145;-69
2021/11/01 01:07:33;;;;;;;;;;;;;;;3.98;79.60;101798.72;1927904;74;20102;-69
2021/11/01 01:10:01;;;;;;;;;;;;;;;3.97;79.67;101803.95;1926223;74;20148;-68
2021/11/01 01:12:29;;;;;;;;;;;;;;;3.98;79.57;101794.81;1918223;75;20152;-69
2021/11/01 01:15:01;;;;;;;;;;;;;;;3.99;79.52;101803.08;1918432;75;20428;-68
2021/11/01 01:17:27;;;;;;;;;;;;;;;3.94;79.81;101799.58;1918175;73;20126;-69
2021/11/01 01:20:05;;;;;;;;;;;;;;;3.89;79.86;101805.63;1918325;73;20103;-69
2021/11/01 01:22:31;;;;;;;;;;;;;;;3.86;79.75;101798.23;1918448;75;20107;-69
2021/11/01 01:25:14;;;;;;;;;;;;;;;3.85;79.69;101801.72;1918259;75;20114;-69
2021/11/01 01:27:45;;;;;;;;;;;;;;;3.85;80.09;101801.72;1918390;75;20118;-69
2021/11/01 01:30:14;;;;;;;;;;;;;;;3.83;79.97;101803.42;1918315;75;20142;-69
2021/11/01 01:32:43;;;;;;;;;;;;;;;3.78;80.12;101805.15;1918379;75;20106;-69
2021/11/01 01:35:12;;;;;;;;;;;;;;;3.77;80.13;101813.81;1918274;75;20221;-70
2021/11/01 01:37:41;;;;;;;;;;;;;;;3.81;79.86;101820.78;1918286;75;20426;-69
2021/11/01 01:40:10;;;;;;;;;;;;;;;3.85;79.59;101816.45;1918319;75;20118;-69
2021/11/01 01:42:39;;;;;;;;;;;;;;;3.86;79.34;101813.00;1918336;75;20145;-68
2021/11/01 01:45:08;;;;;;;;;;;;;;;3.86;79.27;101811.27;1918546;75;20126;-69
2021/11/01 01:47:36;;;;;;;;;;;;;;;3.87;79.16;101805.61;1918269;75;20141;-70
2021/11/01 01:50:05;;;;;;;;;;;;;;;3.90;79.03;101802.17;1918293;75;20114;-68
2021/11/01 01:52:33;;;;;;;;;;;;;;;3.91;78.91;101809.11;1918260;75;20115;-68
2021/11/01 01:55:01;;;;;;;;;;;;;;;3.92;78.82;101818.69;1918318;75;20193;-68
2021/11/01 01:57:29;;;;;;;;;;;;;;;3.93;78.78;101809.58;1918319;75;20114;-67
2021/11/01 01:59:56;;;;;;;;;;;;;;;3.96;78.75;101806.10;1918335;75;20119;-69
2021/11/01 02:02:25;;;;;;;;;;;;;;;3.98;78.72;101809.14;1918220;75;20114;-67
2021/11/01 02:04:53;;;;;;;;;;;;;;;4.01;78.67;101804.41;1918302;75;20119;-68
2021/11/01 02:07:33;;;;;;;;;;;;;;;4.04;78.59;101805.73;1918271;75;20154;-68
2021/11/01 02:10:08;;;;;;;;;;;;;;;4.06;78.52;101806.61;1918281;75;20431;-68
2021/11/01 02:12:37;;;;;;;;;;;;;;;4.06;78.75;101809.21;1927747;74;20110;-68
2021/11/01 02:15:12;;;;;;;;;;;;;;;4.05;78.67;101813.97;1927894;73;20165;-67
2021/11/01 02:17:41;;;;;;;;;;;;;;;3.95;79.05;101810.89;1928311;73;20141;-68
2021/11/01 02:20:10;;;;;;;;;;;;;;;3.86;79.31;101805.19;1927969;74;20114;-68
2021/11/01 02:22:45;;;;;;;;;;;;;;;3.80;79.33;101806.02;1927849;74;20148;-68
2021/11/01 02:25:33;;;;;;;;;;;;;;;3.80;79.21;101794.30;1927791;74;20140;-69
2021/11/01 02:28:01;;;;;;;;;;;;;;;3.80;79.13;101785.59;1928790;73;20436;-67
2021/11/01 02:30:30;;;;;;;;;;;;;;;3.77;79.25;101791.67;1927874;74;20380;-68
2021/11/01 02:32:58;;;;;;;;;;;;;;;3.77;79.28;101789.06;1927830;74;20368;-68
2021/11/01 02:35:27;;;;;;;;;;;;;;;3.78;79.09;101789.92;1927801;74;20148;-68
2021/11/01 02:37:54;;;;;;;;;;;;;;;3.78;79.00;101786.91;1927783;74;20114;-68
2021/11/01 02:40:24;;;;;;;;;;;;;;;3.77;78.89;101789.06;1927867;74;20118;-68
2021/11/01 02:42:51;;;;;;;;;;;;;;;3.69;79.05;101789.47;1927861;73;20118;-68
2021/11/01 02:45:19;;;;;;;;;;;;;;;3.66;79.15;101783.78;1927835;74;20106;-68
2021/11/01 02:47:47;;;;;;;;;;;;;;;3.63;79.29;101788.10;1927827;74;20118;-68
2021/11/01 02:50:16;;;;;;;;;;;;;;;3.65;79.17;101785.97;1927940;74;20149;-68
2021/11/01 02:52:44;;;;;;;;;;;;;;;3.68;78.97;101781.20;1927942;74;20140;-68
2021/11/01 02:55:13;;;;;;;;;;;;;;;3.71;78.84;101776.02;1927947;74;20118;-69
2021/11/01 02:57:42;;;;;;;;;;;;;;;3.72;78.71;101775.13;1927982;74;20158;-68
2021/11/01 03:00:11;;;;;;;;;;;;;;;3.72;78.60;101784.25;1928012;74;20384;-68
2021/11/01 03:02:39;;;;;;;;;;;;;;;3.72;78.48;101782.09;1927948;74;20111;-71
2021/11/01 03:05:08;;;;;;;;;;;;;;;3.70;78.41;101789.88;1927920;74;20176;-67
2021/11/01 03:07:37;;;;;;;;;;;;;;;3.65;78.63;101786.37;1928058;74;20114;-68
2021/11/01 03:10:06;;;;;;;;;;;;;;;3.61;78.75;101785.48;1927984;74;20149;-68
2021/11/01 03:12:33;;;;;;;;;;;;;;;3.56;78.74;101779.80;1927977;74;20369;-68
2021/11/01 03:15:04;;;;;;;;;;;;;;;3.52;79.01;101776.75;1927981;74;20181;-68
2021/11/01 03:17:34;;;;;;;;;;;;;;;3.48;79.22;101783.66;1927882;74;20392;-68
2021/11/01 03:20:03;;;;;;;;;;;;;;;3.46;79.35;101777.14;1927982;74;20148;-68
2021/11/01 03:22:35;;;;;;;;;;;;;;;3.45;79.40;101771.95;1928064;74;20204;-68
2021/11/01 03:25:05;;;;;;;;;;;;;;;3.42;79.42;101769.31;1928032;73;20144;-68
2021/11/01 03:27:35;;;;;;;;;;;;;;;3.38;79.59;101759.74;1927976;74;20149;-68
2021/11/01 03:30:03;;;;;;;;;;;;;;;3.37;79.47;101762.75;1927878;74;20184;-68
2021/11/01 03:32:32;;;;;;;;;;;;;;;3.31;79.78;101758.81;1927977;74;20173;-67
2021/11/01 03:35:02;;;;;;;;;;;;;;;3.29;79.87;101762.70;1927910;74;20133;-67
2021/11/01 03:37:30;;;;;;;;;;;;;;;3.29;79.93;101756.20;1928245;74;20357;-67
2021/11/01 03:39:59;;;;;;;;;;;;;;;3.31;79.78;101754.91;1928129;74;20130;-66
2021/11/01 03:42:28;;;;;;;;;;;;;;;3.28;79.91;101760.98;1927891;74;20364;-66
2021/11/01 03:45:05;;;;;;;;;;;;;;;3.23;80.14;101756.59;1927948;74;20102;-67
2021/11/01 03:47:37;;;;;;;;;;;;;;;3.20;80.27;101750.06;1927909;74;20169;-67
2021/11/01 03:50:06;;;;;;;;;;;;;;;3.21;80.38;101747.88;1928596;73;20169;-66
2021/11/01 03:52:36;;;;;;;;;;;;;;;3.21;80.46;101742.67;1927901;74;20165;-67
2021/11/01 03:55:04;;;;;;;;;;;;;;;3.22;80.42;101749.20;1927873;74;20118;-67
2021/11/01 03:57:32;;;;;;;;;;;;;;;3.19;80.57;101743.09;1927957;74;20118;-67
2021/11/01 04:00:00;;;;;;;;;;;;;;;3.17;80.60;101745.72;1927964;74;20377;-66
2021/11/01 04:02:28;;;;;;;;;;;;;;;3.17;80.80;101744.41;1927966;74;20102;-67
2021/11/01 04:04:56;;;;;;;;;;;;;;;3.14;80.94;101739.61;1927935;74;20141;-67
2021/11/01 04:07:23;;;;;;;;;;;;;;;3.11;81.09;101732.63;1927891;74;20102;-68
2021/11/01 04:09:51;;;;;;;;;;;;;;;3.09;81.00;101736.52;1927973;74;20166;-65
2021/11/01 04:12:19;;;;;;;;;;;;;;;3.09;81.06;101733.92;1927835;74;20620;-66
2021/11/01 04:14:54;;;;;;;;;;;;;;;3.09;81.01;101725.25;1927884;74;20144;-66
2021/11/01 04:17:35;;;;;;;;;;;;;;;3.17;80.81;101735.70;1927775;74;20118;-65
2021/11/01 04:20:13;;;;;;;;;;;;;;;3.19;80.78;101743.09;1927416;73;20098;-65
2021/11/01 04:22:35;;;;;;;;;;;;;;;3.19;80.94;101739.19;1927217;73;20149;-67
2021/11/01 04:25:02;;;;;;;;;;;;;;;3.16;81.07;101741.35;1927949;74;20110;-65
2021/11/01 04:27:30;;;;;;;;;;;;;;;3.22;81.12;101749.64;1927918;74;20114;-66
2021/11/01 04:29:59;;;;;;;;;;;;;;;3.25;81.11;101747.06;1927948;74;20114;-66
2021/11/01 04:32:42;;;;;;;;;;;;;;;3.30;80.94;101753.16;1927522;74;20189;-66
2021/11/01 04:35:26;;;;;;;;;;;;;;;3.35;80.85;101754.50;1927549;74;20203;-66
2021/11/01 04:38:26;;;;;;;;;;;;;;;3.44;80.74;101752.83;1927606;74;20110;-67
2021/11/01 04:53:54;;;;;;;;;;;;;;;4.02;79.73;101732.74;1927903;74;20157;-66
2021/11/01 04:56:25;;;;;;;;;;;;;;;4.18;79.50;101732.34;1927938;74;20110;-62
2021/11/01 04:58:57;;;;;;;;;;;;;;;4.37;79.27;101734.59;1927927;74;20352;-64
2021/11/01 05:01:33;;;;;;;;;;;;;;;4.62;79.07;101739.41;1927955;74;20122;-64
2021/11/01 05:03:57;;;;;;;;;;;;;;;4.91;78.79;101739.88;1928969;73;20181;-64
2021/11/01 05:06:26;;;;;;;;;;;;;;;5.15;78.57;101733.79;1927956;74;20118;-63
2021/11/01 05:09:06;;;;;;;;;;;;;;;5.38;78.32;101732.44;1927940;74;20118;-63
2021/11/01 05:11:33;;;;;;;;;;;;;;;5.58;77.97;101735.46;1927111;74;20118;-63
2021/11/01 05:14:00;;;;;;;;;;;;;;;5.72;77.66;101732.38;1919241;74;20118;-64
2021/11/01 05:21:58;;;;;;;;;;;;;;;6.48;76.33;101736.00;1918305;75;20103;-64
2021/11/01 05:27:09;;;;;;;;;;;;;;;7.28;75.02;101736.67;1922692;74;20110;-64
2021/11/01 05:29:23;;;;;;;;;;;;;;;7.37;74.70;101739.66;1918708;74;20161;-64
2021/11/01 05:32:05;;;;;;;;;;;;;;;7.63;74.67;101744.17;1918325;75;20186;-64
2021/11/01 05:34:23;;;;;;;;;;;;;;;7.99;74.42;101739.86;1919161;73;20427;-63
2021/11/01 05:36:51;;;;;;;;;;;;;;;8.55;74.23;101738.70;1918324;75;20118;-65
2021/11/01 05:39:19;;;;;;;;;;;;;;;9.10;74.05;101735.20;1918222;75;20157;-64
2021/11/01 05:41:47;;;;;;;;;;;;;;;9.63;73.59;101742.57;1918336;75;20102;-64
2021/11/01 05:44:15;;;;;;;;;;;;;;;9.96;72.45;101730.97;1918317;75;20118;-64
2021/11/01 05:46:48;;;;;;;;;;;;;;;10.28;72.20;101729.41;1918316;75;20149;-64
2021/11/01 05:49:12;;;;;;;;;;;;;;;10.56;71.62;101747.25;1918298;75;20122;-64
2021/11/01 05:51:39;;;;;;;;;;;;;;;10.54;69.33;101747.73;1918208;75;20102;-64
2021/11/01 05:54:11;;;;;;;;;;;;;;;10.62;68.74;101743.14;1918283;75;20127;-63
2021/11/01 06:07:16;;;;;;;;;;;;;;;13.12;68.44;101710.55;1918288;75;20144;-64
2021/11/01 06:09:47;;;;;;;;;;;;;;;13.60;67.94;101712.88;1918290;75;20158;-64
2021/11/01 06:14:47;;;;;;;;;;;;;;;14.37;66.43;101703.38;1927316;74;20161;-64
2021/11/01 06:17:15;;;;;;;;;;;;;;;14.84;65.94;101703.24;1927883;74;20231;-63
2021/11/01 06:19:43;;;;;;;;;;;;;;;15.09;65.67;101715.02;1927992;74;20183;-64
2021/11/01 06:22:13;;;;;;;;;;;;;;;15.26;65.09;101715.63;1927913;74;20220;-65
2021/11/01 06:27:14;;;;;;;;;;;;;;;15.78;64.20;101719.12;1927935;74;20161;-67
2021/11/01 06:30:05;;;;;;;;;;;;;;;16.24;64.00;101702.85;1928021;74;20118;-64
2021/11/01 06:49:42;;;;;;;;;;;;;;;16.19;62.24;101692.42;1927924;74;20114;-65
2021/11/01 06:57:11;;;;;;;;;;;;;;;16.88;58.83;101680.26;1927926;74;20114;-64
2021/11/01 07:14:51;;;;;;;;;;;;;;;18.32;54.63;101653.02;1927987;74;20278;-64
2021/11/01 07:17:06;;;;;;;;;;;;;;;18.51;55.30;101645.66;1925712;74;20118;-64
2021/11/01 08:36:52;;;;;;;;;;;;;;;22.19;45.67;101600.58;1927794;74;20141;-64
2021/11/01 08:39:37;;;;;;;;;;;;;;;22.24;44.97;101602.41;1931397;73;20113;-64
2021/11/01 08:42:11;;;;;;;;;;;;;;;22.95;43.87;101598.41;1926867;74;20136;-65
2021/11/01 09:04:02;;;;;;;;;;;;;;;25.33;41.04;101568.45;1927749;74;20110;-64
2021/11/01 09:20:07;;;;;;;;;;;;;;;22.47;46.39;101544.38;1928016;74;20115;-64
2021/11/01 09:23:07;;;;;;;;;;;;;;;21.47;47.61;101543.73;1927988;74;20183;-66
2021/11/01 09:41:15;;;;;;;;;;;;;;;19.06;50.97;101526.80;1927907;74;20148;-64
2021/11/01 09:43:49;;;;;;;;;;;;;;;20.12;49.58;101520.48;1928052;74;20195;-64
2021/11/01 09:46:14;;;;;;;;;;;;;;;21.01;48.40;101518.88;1927680;74;20173;-64
2021/11/01 09:48:42;;;;;;;;;;;;;;;21.38;47.59;101510.89;1927907;74;20114;-64
2021/11/01 09:51:10;;;;;;;;;;;;;;;21.81;47.12;101513.11;1927862;74;20118;-64
2021/11/01 09:53:45;;;;;;;;;;;;;;;22.20;46.98;101508.39;1927865;74;20110;-64
2021/11/01 10:01:35;;;;;;;;;;;;;;;21.87;48.23;101505.94;1927883;74;20148;-65
2021/11/01 10:04:03;;;;;;;;;;;;;;;22.04;48.07;101503.36;1928131;74;20173;-64
2021/11/01 10:06:31;;;;;;;;;;;;;;;22.20;48.06;101499.01;1928005;74;20106;-63
2021/11/01 10:09:05;;;;;;;;;;;;;;;22.24;48.30;101501.81;1928042;74;20189;-64
2021/11/01 10:11:39;;;;;;;;;;;;;;;22.27;48.05;101502.97;1927977;74;20118;-64
2021/11/01 10:14:07;;;;;;;;;;;;;;;22.30;47.62;101509.95;1927959;74;20156;-63
2021/11/01 10:19:27;;;;;;;;;;;;;;;24.00;45.51;101502.19;1918516;75;20424;-63
2021/11/01 10:21:57;;;;;;;;;;;;;;;24.75;44.27;101495.41;1918404;73;20107;-64
2021/11/01 10:24:26;;;;;;;;;;;;;;;25.31;44.06;101489.58;1918499;75;20119;-63
2021/11/01 10:26:56;;;;;;;;;;;;;;;25.60;43.56;101483.36;1918388;75;20498;-63
2021/11/01 10:29:24;;;;;;;;;;;;;;;25.72;43.22;101469.27;1918416;75;20158;-62
2021/11/01 10:31:52;;;;;;;;;;;;;;;25.95;42.63;101465.81;1918374;75;20119;-63
2021/11/01 10:34:21;;;;;;;;;;;;;;;25.89;43.07;101463.66;1918541;75;20114;-64
2021/11/01 10:36:53;;;;;;;;;;;;;;;25.77;43.14;101462.45;1918922;73;20110;-63
2021/11/01 10:39:22;;;;;;;;;;;;;;;25.90;43.00;101456.78;1918207;75;20106;-63
2021/11/01 10:41:55;;;;;;;;;;;;;;;25.85;43.06;101458.20;1918764;75;20107;-63
2021/11/01 10:59:01;;;;;;;;;;;;;;;23.43;46.32;101446.89;1918325;75;20173;-64
2021/11/01 11:12:25;;;;;;;;;;;;;;;21.24;49.67;101415.95;1918330;75;20140;-62
2021/11/01 11:14:49;;;;;;;;;;;;;;;20.88;50.23;101417.63;1919784;73;20185;-63
2021/11/01 11:17:24;;;;;;;;;;;;;;;20.54;50.67;101416.00;1918153;74;20126;-62
2021/11/01 11:22:53;;;;;;;;;;;;;;;20.01;51.42;101408.93;1918450;75;20114;-62
2021/11/01 11:25:17;;;;;;;;;;;;;;;19.95;51.74;101406.66;1918397;73;20200;-63
2021/11/01 11:47:15;;;;;;;;;;;;;;;19.70;52.49;101446.64;1918316;75;20130;-61
2021/11/01 11:49:38;;;;;;;;;;;;;;;19.75;52.42;101456.09;1919138;73;20122;-61
2021/11/01 11:52:07;;;;;;;;;;;;;;;19.73;52.07;101458.50;1918271;75;20126;-62
2021/11/01 11:54:48;;;;;;;;;;;;;;;19.66;52.13;101459.34;1918344;73;20118;-61
2021/11/01 11:57:23;;;;;;;;;;;;;;;19.61;52.26;101462.33;1918337;75;20118;-61
2021/11/01 11:59:53;;;;;;;;;;;;;;;19.44;52.11;101454.55;1918335;75;20148;-61
2021/11/01 12:02:41;;;;;;;;;;;;;;;19.34;52.47;101448.11;1918637;75;20365;-61
2021/11/01 12:05:13;;;;;;;;;;;;;;;19.27;52.71;101430.28;1918358;75;20118;-61
2021/11/01 12:07:44;;;;;;;;;;;;;;;19.16;53.07;101415.44;1918295;75;20118;-61
2021/11/01 12:10:20;;;;;;;;;;;;;;;19.08;53.34;101410.11;1918560;73;20115;-61
2021/11/01 12:17:59;;;;;;;;;;;;;;;18.95;54.11;101419.02;1918250;74;20126;-61
2021/11/01 12:20:27;;;;;;;;;;;;;;;18.93;54.25;101417.78;1918363;75;20106;-61
2021/11/01 12:23:03;;;;;;;;;;;;;;;18.83;54.47;101416.17;1918305;75;20162;-62
2021/11/01 12:25:26;;;;;;;;;;;;;;;18.72;54.60;101413.30;1918353;74;20203;-62
2021/11/01 12:27:59;;;;;;;;;;;;;;;18.70;54.55;101406.72;1918426;75;20232;-62
2021/11/01 12:30:30;;;;;;;;;;;;;;;18.72;54.51;101401.30;1918328;75;20150;-62
2021/11/01 12:32:59;;;;;;;;;;;;;;;18.72;54.57;101397.30;1918363;75;20396;-62
2021/11/01 12:35:28;;;;;;;;;;;;;;;18.73;54.67;101399.47;1918279;75;20141;-62
2021/11/01 12:37:59;;;;;;;;;;;;;;;18.69;54.85;101396.98;1918213;75;20404;-62
2021/11/01 12:40:36;;;;;;;;;;;;;;;18.64;54.95;101392.41;1918478;75;20126;-62
2021/11/01 12:43:10;;;;;;;;;;;;;;;18.60;55.04;101387.38;1918466;74;20118;-62
2021/11/01 12:59:14;;;;;;;;;;;;;;;18.30;55.93;101375.00;1918511;75;20138;-62
2021/11/01 13:01:51;;;;;;;;;;;;;;;18.65;55.67;101374.62;1918407;75;20102;-63
2021/11/01 13:04:38;;;;;;;;;;;;;;;18.81;55.44;101375.86;1918440;75;20349;-62
2021/11/01 13:09:56;;;;;;;;;;;;;;;18.83;55.46;101377.48;1918351;75;20115;-63
2021/11/01 13:18:14;;;;;;;;;;;;;;;18.04;55.50;101382.78;1922131;74;20172;-62
2021/11/01 13:20:48;;;;;;;;;;;;;;;17.86;55.84;101374.55;1928014;74;20114;-62
2021/11/01 13:23:16;;;;;;;;;;;;;;;17.66;56.07;101371.22;1927900;74;20118;-60
2021/11/01 13:25:57;;;;;;;;;;;;;;;17.52;56.20;101373.83;1927867;74;20204;-60
2021/11/01 13:36:33;;;;;;;;;;;;;;;17.19;56.71;101376.17;1927760;74;20144;-60
2021/11/01 13:39:05;;;;;;;;;;;;;;;17.12;56.86;101376.13;1927242;74;20118;-61
2021/11/01 13:41:31;;;;;;;;;;;;;;;17.04;57.13;101376.57;1927427;74;20138;-62
2021/11/01 13:44:16;;;;;;;;;;;;;;;16.95;57.39;101372.61;1927864;74;20118;-62
2021/11/01 13:46:44;;;;;;;;;;;;;;;16.88;57.39;101373.89;1927741;74;20411;-62
2021/11/01 13:49:13;;;;;;;;;;;;;;;16.82;57.41;101372.00;1927842;74;20102;-64
2021/11/01 13:51:43;;;;;;;;;;;;;;;16.77;57.50;101376.26;1927816;74;20118;-63
2021/11/01 13:56:49;;;;;;;;;;;;;;;16.63;57.65;101369.50;1927747;74;20114;-63
2021/11/01 14:02:16;;;;;;;;;;;;;;;16.46;57.90;101377.91;1927840;74;20114;-63
2021/11/01 14:12:53;;;;;;;;;;;;;;;16.16;58.51;101357.34;1927988;74;20122;-64
2021/11/01 14:20:42;;;;;;;;;;;;;;;16.08;59.00;101343.59;1927967;74;20148;-64
2021/11/01 14:28:38;;;;;;;;;;;;;;;15.87;59.50;101348.71;1927813;74;20118;-64
2021/11/01 14:31:19;;;;;;;;;;;;;;;15.80;59.64;101350.81;1928738;73;20145;-63
2021/11/01 14:34:01;;;;;;;;;;;;;;;15.69;59.80;101347.81;1926685;73;20440;-62
2021/11/01 14:56:25;;;;;;;;;;;;;;;15.06;60.52;101354.44;1927945;74;20454;-63
2021/11/01 15:09:20;;;;;;;;;;;;;;;14.71;60.89;101336.23;1928001;74;20110;-64
2021/11/01 15:11:46;;;;;;;;;;;;;;;14.58;60.95;101334.14;1926008;74;20443;-60
2021/11/01 15:14:12;;;;;;;;;;;;;;;14.53;61.04;101336.10;1926519;73;20106;-60
2021/11/01 15:24:50;;;;;;;;;;;;;;;14.34;61.37;101332.59;1918759;75;20150;-61
2021/11/01 15:35:17;;;;;;;;;;;;;;;14.21;61.50;101319.89;1923476;74;20119;-62
2021/11/01 16:16:34;;;;;;;;;;;;;;;13.20;66.49;101307.86;1951080;72;20244;-59
2021/11/01 16:18:45;;;;;;;;;;;;;;;13.13;67.39;101308.59;1948205;73;20421;-62
2021/11/01 16:21:12;;;;;;;;;;;;;;;13.11;67.48;101309.12;1959315;72;20192;-62
2021/11/01 16:23:42;;;;;;;;;;;;;;;13.10;66.84;101307.38;1997609;72;20140;-61
2021/11/01 16:26:23;;;;;;;;;;;;;;;13.12;66.51;101313.47;1988287;72;20212;-61
2021/11/01 16:28:51;;;;;;;;;;;;;;;13.11;66.26;101314.41;1951456;73;20112;-61
2021/11/01 16:31:31;;;;;;;;;;;;;;;13.10;66.43;101311.82;1954521;72;20114;-60
2021/11/01 16:34:05;;;;;;;;;;;;;;;13.10;66.22;101314.46;1951882;73;20113;-63
2021/11/01 16:39:18;;;;;;;;;;;;;;;13.09;65.97;101311.41;1954039;73;20104;-62
2021/11/01 16:41:47;;;;;;;;;;;;;;;12.99;66.74;101305.64;1953945;73;20190;-62
2021/11/01 16:44:32;;;;;;;;;;;;;;;13.00;66.46;101303.84;1954034;73;20182;-63
2021/11/01 16:47:00;;;;;;;;;;;;;;;12.99;66.41;101297.70;1954065;73;20116;-64
2021/11/01 16:49:30;;;;;;;;;;;;;;;13.01;66.10;101291.89;1953980;73;20112;-61
2021/11/01 16:52:04;;;;;;;;;;;;;;;13.00;66.36;101290.16;1952983;73;20156;-61
2021/11/01 16:54:31;;;;;;;;;;;;;;;13.01;66.10;101290.57;1952033;73;20461;-60
2021/11/01 16:57:03;;;;;;;;;;;;;;;13.01;66.28;101279.14;1931954;73;20110;-60
2021/11/01 16:59:37;;;;;;;;;;;;;;;12.89;66.77;101277.84;1918210;74;20114;-61
2021/11/01 17:02:26;;;;;;;;;;;;;;;12.79;66.86;101272.53;1917406;73;20134;-61
2021/11/01 17:04:39;;;;;;;;;;;;;;;12.72;66.90;101270.59;1914819;73;20169;-61
2021/11/01 17:07:21;;;;;;;;;;;;;;;12.72;66.74;101266.16;1940478;73;20146;-62
2021/11/01 17:10:21;;;;;;;;;;;;;;;12.74;66.58;101263.02;1951833;73;20112;-61
2021/11/01 17:24:06;;;;;;;;;;;;;;;12.62;67.53;101260.84;1950742;74;20513;-61
2021/11/01 17:26:37;;;;;;;;;;;;;;;12.52;67.78;101254.19;1948592;72;20150;-61
2021/11/01 17:37:08;;;;;;;;;;;;;;;12.19;69.50;101240.06;1925974;74;20193;-65
2021/11/01 18:36:13;;;;;;;;;;;;;;;11.72;68.75;101191.19;1897963;75;20240;-65
2021/11/01 18:38:21;;;;;;;;;;;;;;;11.58;68.60;101193.88;1928026;74;20145;-64
2021/11/01 18:40:40;;;;;;;;;;;;;;;11.55;68.75;101192.66;1926818;74;20106;-65
2021/11/01 18:43:21;;;;;;;;;;;;;;;11.52;68.81;101186.16;1927959;74;20157;-64
2021/11/01 18:51:10;;;;;;;;;;;;;;;11.31;71.09;101185.63;1927929;74;20110;-64
2021/11/01 18:53:40;;;;;;;;;;;;;;;11.18;71.97;101180.77;1927984;74;20223;-64
2021/11/01 18:56:11;;;;;;;;;;;;;;;11.11;72.17;101177.94;1928012;74;20114;-64
2021/11/01 18:58:40;;;;;;;;;;;;;;;11.11;71.98;101172.67;1927959;74;20106;-64
2021/11/01 19:01:10;;;;;;;;;;;;;;;11.12;72.34;101182.31;1927913;74;20114;-64
2021/11/01 19:03:44;;;;;;;;;;;;;;;11.09;72.29;101176.28;1927888;73;20193;-65
2021/11/01 20:04:29;;;;;;;;;;;;;;;10.28;74.51;101124.02;1927980;74;20141;-64
2021/11/01 21:27:02;;;;;;;;;;;;;;;9.62;76.40;101078.22;1918331;75;20118;-64
2021/11/01 21:29:32;;;;;;;;;;;;;;;9.57;76.42;101076.20;1918258;75;20389;-65
2021/11/01 21:32:00;;;;;;;;;;;;;;;9.58;76.50;101084.94;1918268;73;20114;-64
2021/11/01 21:34:35;;;;;;;;;;;;;;;9.52;77.16;101074.16;1918286;75;20130;-64
2021/11/01 21:37:02;;;;;;;;;;;;;;;9.49;77.45;101067.66;1918310;75;20150;-64
2021/11/01 21:39:30;;;;;;;;;;;;;;;9.48;77.46;101076.47;1918250;75;20365;-65
2021/11/01 21:41:58;;;;;;;;;;;;;;;9.46;77.88;101075.62;1918245;75;20118;-65
2021/11/01 21:44:26;;;;;;;;;;;;;;;9.47;77.98;101083.94;1918314;75;20162;-64
2021/11/01 21:46:55;;;;;;;;;;;;;;;9.45;78.30;101076.09;1918312;75;20197;-64
2021/11/01 21:49:23;;;;;;;;;;;;;;;9.44;77.92;101073.06;1918308;75;20099;-64
2021/11/01 21:51:53;;;;;;;;;;;;;;;9.45;78.17;101067.34;1918296;75;20123;-64
2021/11/01 21:54:28;;;;;;;;;;;;;;;9.45;78.21;101065.57;1918498;75;20114;-65
2021/11/01 21:56:58;;;;;;;;;;;;;;;9.53;77.82;101070.59;1918542;74;20122;-64
2021/11/01 22:18:49;;;;;;;;;;;;;;;9.75;77.61;101052.88;1918647;75;20141;-65
2021/11/01 22:23:47;;;;;;;;;;;;;;;9.78;77.39;101054.11;1918521;75;20197;-65
2021/11/01 22:26:23;;;;;;;;;;;;;;;9.74;77.34;101045.45;1926375;73;20137;-64
2021/11/01 22:34:22;;;;;;;;;;;;;;;9.80;76.96;101027.30;1928064;74;20205;-65
2021/11/01 22:39:43;;;;;;;;;;;;;;;9.90;76.67;101031.34;1928150;74;20114;-65
2021/11/01 22:42:29;;;;;;;;;;;;;;;9.89;76.75;101029.64;1927681;74;20114;-65
2021/11/01 22:55:51;;;;;;;;;;;;;;;10.09;76.89;101017.61;1928116;74;20146;-65
2021/11/01 22:58:20;;;;;;;;;;;;;;;10.07;76.73;101016.80;1928215;74;20110;-63
2021/11/01 23:00:52;;;;;;;;;;;;;;;10.08;76.88;101010.17;1928142;74;20424;-63
2021/11/01 23:03:31;;;;;;;;;;;;;;;10.13;76.62;101006.95;1927979;74;20244;-64
2021/11/01 23:06:15;;;;;;;;;;;;;;;10.14;76.86;101009.11;1928036;73;20113;-63
2021/11/01 23:33:30;;;;;;;;;;;;;;;10.34;75.92;100990.91;1918389;75;20118;-63
2021/11/01 23:35:58;;;;;;;;;;;;;;;10.34;75.88;100985.65;1918396;75;20119;-63
2021/11/01 23:38:26;;;;;;;;;;;;;;;10.34;75.78;101001.44;1918334;74;20161;-64
2021/11/01 23:40:54;;;;;;;;;;;;;;;10.31;76.26;101011.21;1918282;75;20110;-63
2021/11/01 23:43:22;;;;;;;;;;;;;;;10.24;76.16;101016.66;1918528;75;20118;-63
2021/11/01 23:45:51;;;;;;;;;;;;;;;10.24;76.00;101011.86;1918371;75;20114;-64
2021/11/01 23:48:19;;;;;;;;;;;;;;;10.22;76.21;101007.11;1918366;74;20106;-64
2021/11/01 23:50:49;;;;;;;;;;;;;;;10.21;76.18;101015.90;1918514;75;20153;-64
2021/11/01 23:54:13;;;;;;;;;;;;;;;10.20;76.74;101016.83;1918253;75;20118;-64
2021/11/01 23:55:47;;;;;;;;;;;;;;;10.18;77.15;101019.94;1920863;74;20145;-64
2021/11/01 23:58:16;;;;;;;;;;;;;;;10.16;77.38;101020.02;1918409;75;20288;-64
